createdAt,value
2018-09-29T00:02:14.730Z,71.64
2018-09-29T00:04:45.380Z,72.12
2018-09-29T00:07:16.976Z,72.52
2018-09-29T00:09:48.040Z,72.74
2018-09-29T00:12:19.393Z,73.02
2018-09-29T00:14:49.906Z,72.99
2018-09-29T00:17:20.514Z,72.92
2018-09-29T00:19:51.182Z,73.65
2018-09-29T00:22:22.519Z,73.40
2018-09-29T00:24:53.740Z,73.40
2018-09-29T00:27:24.540Z,73.23
2018-09-29T00:29:54.921Z,73.33
2018-09-29T00:32:25.047Z,73.15
2018-09-29T00:34:56.130Z,73.33
2018-09-29T00:37:26.892Z,73.24
2018-09-29T00:39:57.863Z,73.23
2018-09-29T00:42:28.749Z,73.13
2018-09-29T00:44:59.905Z,73.48
2018-09-29T00:47:30.429Z,73.18
2018-09-29T00:50:01.238Z,72.95
2018-09-29T00:52:31.353Z,73.57
2018-09-29T00:55:01.715Z,73.60
2018-09-29T00:57:32.226Z,73.66
2018-09-29T01:00:02.811Z,73.60
2018-09-29T01:02:33.363Z,73.67
2018-09-29T01:05:03.745Z,73.85
2018-09-29T01:07:35.165Z,73.58
2018-09-29T01:10:06.279Z,73.62
2018-09-29T01:12:38.301Z,73.69
2018-09-29T01:15:09.075Z,74.27
2018-09-29T01:17:41.786Z,74.18
2018-09-29T01:20:12.413Z,74.62
2018-09-29T01:22:43.625Z,74.32
2018-09-29T01:25:15.952Z,74.11
2018-09-29T01:27:48.955Z,74.08
2018-09-29T01:30:20.015Z,74.10
2018-09-29T01:32:51.410Z,73.93
2018-09-29T01:35:21.941Z,74.46
2018-09-29T01:37:52.544Z,74.52
2018-09-29T01:40:25.120Z,74.42
2018-09-29T01:42:56.601Z,74.22
2018-09-29T01:45:29.231Z,74.10
2018-09-29T01:47:59.397Z,73.60
2018-09-29T01:50:29.546Z,73.52
2018-09-29T01:53:00.745Z,73.29
2018-09-29T01:55:32.101Z,74.21
2018-09-29T01:58:03.409Z,74.50
2018-09-29T02:00:34.900Z,74.54
2018-09-29T02:03:11.137Z,74.46
2018-09-29T02:05:42.861Z,74.70
2018-09-29T02:08:14.620Z,74.54
2018-09-29T02:10:44.843Z,74.17
2018-09-29T02:13:15.094Z,74.50
2018-09-29T02:15:44.960Z,74.46
2018-09-29T02:18:15.947Z,74.61
2018-09-29T02:20:46.870Z,74.80
2018-09-29T02:23:19.115Z,74.85
2018-09-29T02:25:51.422Z,75.17
2018-09-29T02:28:24.011Z,74.88
2018-09-29T02:30:54.051Z,74.65
2018-09-29T02:33:24.473Z,74.68
2018-09-29T02:35:54.811Z,74.89
2018-09-29T02:38:25.002Z,74.97
2018-09-29T02:40:55.432Z,74.53
2018-09-29T02:43:26.641Z,74.79
2018-09-29T02:45:59.395Z,74.73
2018-09-29T02:49:55.746Z,75.16
2018-09-29T02:52:28.361Z,75.31
2018-09-29T02:54:58.644Z,75.59
2018-09-29T02:57:30.044Z,75.81
2018-09-29T03:00:02.371Z,75.83
2018-09-29T03:02:35.971Z,75.53
2018-09-29T03:05:07.711Z,75.30
2018-09-29T03:07:39.547Z,75.46
2018-09-29T03:10:11.497Z,75.55
2018-09-29T03:12:43.189Z,75.64
2018-09-29T03:15:18.644Z,75.56
2018-09-29T03:17:50.144Z,75.48
2018-09-29T03:20:21.911Z,75.39
2018-09-29T03:22:53.150Z,75.76
2018-09-29T03:25:24.935Z,75.50
2018-09-29T03:27:55.579Z,76.34
2018-09-29T03:30:26.417Z,76.28
2018-09-29T03:32:57.092Z,75.83
2018-09-29T03:35:28.137Z,76.16
2018-09-29T03:37:59.398Z,76.49
2018-09-29T03:40:30.472Z,76.13
2018-09-29T03:43:01.207Z,76.37
2018-09-29T03:45:31.043Z,76.50
2018-09-29T03:48:01.905Z,76.71
2018-09-29T03:50:32.291Z,76.47
2018-09-29T03:53:02.384Z,76.54
2018-09-29T03:55:32.560Z,76.75
2018-09-29T03:58:02.506Z,76.76
2018-09-29T04:00:32.808Z,76.51
2018-09-29T04:03:02.855Z,76.29
2018-09-29T04:05:33.225Z,75.91
2018-09-29T04:08:03.216Z,76.14
2018-09-29T04:10:33.170Z,76.14
2018-09-29T04:13:03.028Z,76.02
2018-09-29T04:15:33.225Z,76.00
2018-09-29T04:18:03.127Z,75.97
2018-09-29T04:20:33.146Z,76.33
2018-09-29T04:23:03.823Z,76.37
2018-09-29T04:25:33.941Z,76.27
2018-09-29T04:28:04.282Z,76.31
2018-09-29T04:30:34.397Z,76.51
2018-09-29T04:33:04.542Z,77.07
2018-09-29T04:35:34.892Z,77.10
2018-09-29T04:38:04.970Z,76.85
2018-09-29T04:40:34.986Z,76.94
2018-09-29T04:43:05.158Z,76.98
2018-09-29T04:45:35.626Z,77.18
2018-09-29T04:48:06.237Z,76.87
2018-09-29T04:50:37.042Z,77.22
2018-09-29T04:53:07.090Z,77.38
2018-09-29T04:55:37.435Z,77.10
2018-09-29T04:58:08.180Z,76.98
2018-09-29T05:00:38.567Z,77.14
2018-09-29T05:03:08.522Z,77.45
2018-09-29T05:05:39.623Z,77.37
2018-09-29T05:08:10.137Z,77.24
2018-09-29T05:10:40.610Z,76.92
2018-09-29T05:13:11.143Z,76.81
2018-09-29T05:15:40.904Z,76.66
2018-09-29T05:18:10.912Z,76.85
2018-09-29T05:20:43.380Z,77.10
2018-09-29T05:23:13.779Z,77.36
2018-09-29T05:25:43.953Z,77.24
2018-09-29T05:28:14.332Z,77.21
2018-09-29T05:30:44.097Z,77.30
2018-09-29T05:33:14.167Z,77.30
2018-09-29T05:35:44.218Z,76.70
2018-09-29T05:38:14.654Z,76.90
2018-09-29T05:40:44.688Z,76.51
2018-09-29T05:43:15.454Z,76.85
2018-09-29T05:45:46.058Z,77.07
2018-09-29T05:48:18.392Z,76.87
2018-09-29T05:50:51.258Z,77.02
2018-09-29T05:53:21.542Z,76.60
2018-09-29T05:55:51.560Z,76.26
2018-09-29T05:58:22.781Z,76.37
2018-09-29T06:00:52.723Z,75.95
2018-09-29T06:03:22.982Z,75.52
2018-09-29T06:05:55.015Z,75.69
2018-09-29T06:08:25.849Z,75.34
2018-09-29T06:10:56.509Z,75.30
2018-09-29T06:13:26.558Z,75.65
2018-09-29T06:15:58.327Z,75.24
2018-09-29T06:18:29.506Z,75.29
2018-09-29T06:21:01.305Z,75.20
2018-09-29T06:23:31.505Z,75.13
2018-09-29T06:26:03.103Z,75.04
2018-09-29T06:28:32.949Z,74.81
2018-09-29T06:31:03.299Z,75.09
2018-09-29T06:33:33.975Z,74.78
2018-09-29T06:36:04.678Z,75.26
2018-09-29T06:38:37.380Z,74.97
2018-09-29T06:41:12.945Z,74.95
2018-09-29T06:43:43.422Z,74.80
2018-09-29T06:46:15.545Z,74.31
2018-09-29T06:48:46.380Z,74.50
2018-09-29T06:51:18.139Z,73.79
2018-09-29T06:53:49.114Z,73.79
2018-09-29T06:56:19.251Z,73.25
2018-09-29T06:58:51.030Z,73.03
2018-09-29T07:01:21.808Z,72.86
2018-09-29T07:03:52.270Z,73.30
2018-09-29T07:06:22.419Z,73.08
2018-09-29T07:08:52.738Z,72.81
2018-09-29T07:11:22.743Z,72.71
2018-09-29T07:13:57.324Z,72.68
2018-09-29T07:16:27.617Z,72.22
2018-09-29T07:19:02.976Z,72.04
2018-09-29T07:21:34.752Z,72.00
2018-09-29T07:24:04.690Z,71.57
2018-09-29T07:26:35.663Z,70.86
2018-09-29T07:29:05.681Z,69.90
2018-09-29T07:31:35.737Z,69.25
2018-09-29T07:34:06.161Z,69.14
2018-09-29T07:36:36.041Z,68.43
2018-09-29T07:39:08.377Z,67.92
2018-09-29T07:41:40.238Z,67.64
2018-09-29T07:44:11.063Z,66.91
2018-09-29T07:46:44.883Z,66.63
2018-09-29T07:49:15.962Z,65.98
2018-09-29T07:51:49.384Z,65.53
2018-09-29T07:54:21.262Z,65.43
2018-09-29T07:56:51.307Z,65.58
2018-09-29T07:59:22.253Z,65.34
2018-09-29T08:01:52.460Z,64.96
2018-09-29T08:04:22.471Z,64.51
2018-09-29T08:06:53.112Z,64.63
2018-09-29T08:09:23.942Z,64.14
2018-09-29T08:11:54.916Z,64.27
2018-09-29T08:14:26.465Z,64.24
2018-09-29T08:16:57.039Z,63.13
2018-09-29T08:19:28.186Z,62.76
2018-09-29T08:21:58.936Z,62.12
2018-09-29T08:24:30.264Z,61.99
2018-09-29T08:27:01.138Z,62.39
2018-09-29T08:29:32.006Z,62.00
2018-09-29T08:32:02.180Z,61.88
2018-09-29T08:34:32.320Z,61.59
2018-09-29T08:37:03.038Z,61.94
2018-09-29T08:39:33.373Z,62.03
2018-09-29T08:42:03.156Z,61.89
2018-09-29T08:44:33.040Z,60.59
2018-09-29T08:47:03.575Z,60.90
2018-09-29T08:49:33.860Z,60.54
2018-09-29T08:52:03.641Z,60.33
2018-09-29T08:54:34.215Z,60.29
2018-09-29T08:57:04.044Z,60.15
2018-09-29T08:59:34.039Z,60.36
2018-09-29T09:02:04.241Z,60.10
2018-09-29T09:04:34.093Z,59.43
2018-09-29T09:07:04.775Z,59.70
2018-09-29T09:09:35.733Z,59.52
2018-09-29T09:12:05.711Z,59.19
2018-09-29T09:14:36.042Z,58.49
2018-09-29T09:17:06.309Z,58.77
2018-09-29T09:19:36.447Z,58.41
2018-09-29T09:22:07.705Z,58.09
2018-09-29T09:24:38.038Z,58.32
2018-09-29T09:27:08.175Z,58.39
2018-09-29T09:29:39.864Z,58.60
2018-09-29T09:32:09.924Z,58.46
2018-09-29T09:34:40.589Z,57.74
2018-09-29T09:37:16.268Z,57.48
2018-09-29T09:39:46.649Z,58.01
2018-09-29T09:42:17.432Z,57.24
2018-09-29T09:44:47.415Z,57.28
2018-09-29T09:47:17.484Z,57.51
2018-09-29T09:49:48.395Z,56.76
2018-09-29T09:52:19.942Z,56.79
2018-09-29T09:54:50.606Z,56.59
2018-09-29T09:57:20.581Z,56.77
2018-09-29T09:59:51.167Z,55.93
2018-09-29T10:02:26.513Z,55.58
2018-09-29T10:04:56.817Z,55.85
2018-09-29T10:07:27.296Z,56.36
2018-09-29T10:09:59.053Z,56.67
2018-09-29T10:12:29.754Z,57.04
2018-09-29T10:15:00.425Z,56.79
2018-09-29T10:17:31.760Z,56.76
2018-09-29T10:20:01.765Z,56.22
2018-09-29T10:22:31.787Z,55.51
2018-09-29T10:25:02.078Z,55.23
2018-09-29T10:27:32.123Z,54.64
2018-09-29T10:30:02.570Z,54.05
2018-09-29T10:32:32.500Z,54.12
2018-09-29T10:35:02.769Z,53.66
2018-09-29T10:37:34.338Z,54.39
2018-09-29T10:40:10.977Z,53.70
2018-09-29T10:42:45.422Z,53.28
2018-09-29T10:45:19.296Z,51.07
2018-09-29T10:47:51.840Z,51.18
2018-09-29T10:50:21.991Z,50.37
2018-09-29T10:52:51.784Z,50.85
2018-09-29T10:55:22.454Z,50.07
2018-09-29T10:57:54.460Z,49.42
2018-09-29T11:00:28.072Z,49.33
2018-09-29T11:03:03.048Z,49.44
2018-09-29T11:05:36.403Z,49.53
2018-09-29T11:08:08.705Z,48.76
2018-09-29T11:10:41.667Z,47.77
2018-09-29T11:13:19.094Z,46.55
2018-09-29T11:15:58.862Z,45.51
2018-09-29T11:18:33.569Z,46.30
2018-09-29T11:21:10.461Z,46.30
2018-09-29T11:23:55.128Z,46.07
2018-09-29T11:26:35.504Z,46.05
2018-09-29T11:29:17.162Z,47.07
2018-09-29T11:31:50.083Z,46.58
2018-09-29T11:34:29.710Z,46.00
2018-09-29T11:37:02.179Z,45.81
2018-09-29T11:39:39.780Z,45.86
2018-09-29T11:42:15.786Z,45.82
2018-09-29T11:44:59.591Z,45.66
2018-09-29T11:49:24.436Z,44.38
2018-09-29T11:51:57.940Z,45.15
2018-09-29T11:54:30.541Z,45.13
2018-09-29T11:57:04.734Z,44.71
2018-09-29T11:59:36.840Z,43.10
2018-09-29T12:02:07.132Z,43.56
2018-09-29T12:04:39.282Z,43.91
2018-09-29T12:07:09.289Z,42.84
2018-09-29T12:09:39.717Z,42.29
2018-09-29T12:12:14.195Z,43.14
2018-09-29T12:14:45.970Z,42.79
2018-09-29T12:17:21.042Z,43.58
2018-09-29T12:19:59.751Z,43.01
2018-09-29T12:22:30.350Z,43.42
2018-09-29T12:25:03.493Z,43.26
2018-09-29T12:27:38.995Z,42.49
2018-09-29T12:30:20.300Z,41.19
2018-09-29T12:32:53.391Z,41.52
2018-09-29T12:35:27.306Z,41.86
2018-09-29T12:38:00.090Z,42.09
2018-09-29T12:40:31.640Z,41.80
2018-09-29T12:46:03.553Z,40.97
2018-09-29T12:48:39.204Z,40.02
2018-09-29T12:51:15.441Z,40.89
2018-09-29T12:53:50.161Z,41.40
2018-09-29T12:56:29.042Z,41.63
2018-09-29T13:01:52.274Z,40.45
2018-09-29T13:04:26.469Z,39.58
2018-09-29T13:06:57.306Z,39.66
2018-09-29T13:09:30.031Z,39.10
2018-09-29T13:12:05.299Z,39.22
2018-09-29T13:14:49.252Z,38.81
2018-09-29T13:17:20.416Z,38.28
2018-09-29T13:19:56.013Z,38.91
2018-09-29T13:22:28.942Z,38.08
2018-09-29T13:25:04.103Z,38.41
2018-09-29T13:27:44.629Z,38.91
2018-09-29T13:34:37.190Z,38.85
2018-09-29T13:37:10.069Z,38.00
2018-09-29T13:39:45.713Z,37.81
2018-09-29T13:42:23.600Z,38.19
2018-09-29T13:45:00.885Z,37.72
2018-09-29T13:47:32.272Z,37.19
2018-09-29T13:50:13.422Z,37.55
2018-09-29T13:52:50.963Z,38.21
2018-09-29T13:55:24.263Z,38.38
2018-09-29T13:58:03.867Z,37.61
2018-09-29T14:00:53.475Z,38.90
2018-09-29T14:04:30.100Z,38.25
2018-09-29T14:07:02.748Z,39.41
2018-09-29T14:09:34.015Z,38.81
2018-09-29T14:12:05.864Z,38.23
2018-09-29T14:14:39.245Z,37.41
2018-09-29T14:17:12.604Z,38.71
2018-09-29T14:19:45.575Z,39.06
2018-09-29T14:22:17.579Z,38.73
2018-09-29T14:24:48.230Z,38.55
2018-09-29T14:27:19.797Z,37.43
2018-09-29T14:29:49.861Z,37.12
2018-09-29T14:32:21.402Z,37.24
2018-09-29T14:34:51.701Z,36.92
2018-09-29T14:37:29.021Z,38.25
2018-09-29T14:40:00.113Z,38.36
2018-09-29T14:42:30.144Z,38.51
2018-09-29T14:44:59.738Z,38.15
2018-09-29T14:47:30.677Z,38.70
2018-09-29T14:50:01.416Z,39.10
2018-09-29T14:52:36.353Z,38.32
2018-09-29T14:55:08.798Z,39.36
2018-09-29T14:57:38.411Z,39.00
2018-09-29T15:00:09.772Z,39.84
2018-09-29T15:02:40.356Z,40.18
2018-09-29T15:05:10.219Z,39.68
2018-09-29T15:07:40.151Z,39.57
2018-09-29T15:10:12.107Z,40.16
2018-09-29T15:12:42.566Z,40.03
2018-09-29T15:15:12.350Z,40.44
2018-09-29T15:17:43.164Z,40.72
2018-09-29T15:20:12.930Z,40.42
2018-09-29T15:22:45.781Z,41.07
2018-09-29T15:25:15.769Z,41.62
2018-09-29T15:27:45.970Z,41.62
2018-09-29T15:30:18.396Z,41.16
2018-09-29T15:32:48.668Z,41.91
2018-09-29T15:35:21.410Z,42.55
2018-09-29T15:37:51.531Z,42.13
2018-09-29T15:40:22.331Z,42.78
2018-09-29T15:42:54.375Z,43.25
2018-09-29T15:45:25.130Z,44.00
2018-09-29T15:47:58.767Z,42.93
2018-09-29T15:50:28.943Z,43.59
2018-09-29T15:53:01.186Z,43.71
2018-09-29T15:55:31.483Z,44.21
2018-09-29T15:58:01.302Z,44.21
2018-09-29T16:00:31.221Z,44.87
2018-09-29T16:03:01.615Z,44.66
2018-09-29T16:05:32.123Z,44.87
2018-09-29T16:08:04.340Z,44.93
2018-09-29T16:10:35.701Z,45.12
2018-09-29T16:13:07.815Z,45.33
2018-09-29T16:15:39.567Z,46.10
2018-09-29T16:18:10.653Z,45.36
2018-09-29T16:20:40.264Z,45.96
2018-09-29T16:23:09.943Z,46.18
2018-09-29T16:25:40.600Z,46.57
2018-09-29T16:28:10.885Z,46.92
2018-09-29T16:30:40.577Z,47.19
2018-09-29T16:33:11.003Z,47.14
2018-09-29T16:35:40.534Z,47.25
2018-09-29T16:38:10.304Z,47.60
2018-09-29T16:40:41.629Z,47.68
2018-09-29T16:43:11.826Z,48.28
2018-09-29T16:45:42.107Z,48.31
2018-09-29T16:48:12.234Z,48.73
2018-09-29T16:50:42.107Z,48.67
2018-09-29T16:53:12.029Z,49.87
2018-09-29T16:55:41.892Z,49.50
2018-09-29T16:58:12.349Z,49.67
2018-09-29T17:00:41.843Z,50.49
2018-09-29T17:03:11.903Z,51.24
2018-09-29T17:05:41.897Z,50.98
2018-09-29T17:08:12.314Z,51.10
2018-09-29T17:10:42.347Z,52.02
2018-09-29T17:13:12.191Z,51.50
2018-09-29T17:15:42.181Z,52.22
2018-09-29T17:18:12.042Z,52.65
2018-09-29T17:20:41.640Z,53.08
2018-09-29T17:23:11.129Z,53.24
2018-09-29T17:25:41.607Z,53.58
2018-09-29T17:28:11.483Z,54.21
2018-09-29T17:30:41.069Z,54.17
2018-09-29T17:33:10.907Z,54.81
2018-09-29T17:35:40.763Z,54.57
2018-09-29T17:38:11.409Z,55.10
2018-09-29T17:40:41.243Z,55.39
2018-09-29T17:43:10.938Z,55.24
2018-09-29T17:45:41.661Z,54.67
2018-09-29T17:48:12.776Z,54.85
2018-09-29T17:50:45.914Z,55.06
2018-09-29T17:53:15.500Z,55.45
2018-09-29T17:55:45.357Z,55.53
2018-09-29T17:58:14.921Z,56.02
2018-09-29T18:00:44.929Z,56.43
2018-09-29T18:03:17.215Z,56.39
2018-09-29T18:05:50.395Z,56.38
2018-09-29T18:08:24.236Z,56.87
2018-09-29T18:10:54.859Z,56.97
2018-09-29T18:13:33.393Z,56.79
2018-09-29T18:16:04.053Z,56.91
2018-09-29T18:18:34.527Z,56.79
2018-09-29T18:21:05.791Z,57.19
2018-09-29T18:23:36.777Z,57.13
2018-09-29T18:26:06.522Z,58.06
2018-09-29T18:28:36.347Z,57.87
2018-09-29T18:31:06.604Z,58.09
2018-09-29T18:33:36.510Z,58.79
2018-09-29T18:36:06.857Z,58.80
2018-09-29T18:38:39.515Z,58.97
2018-09-29T18:41:10.311Z,58.45
2018-09-29T18:43:41.002Z,59.01
2018-09-29T18:46:10.918Z,59.15
2018-09-29T18:48:42.211Z,59.32
2018-09-29T18:51:12.758Z,59.67
2018-09-29T18:53:43.570Z,59.20
2018-09-29T18:56:15.259Z,59.82
2018-09-29T18:58:47.024Z,59.68
2018-09-29T19:01:17.447Z,59.35
2018-09-29T19:03:49.436Z,59.88
2018-09-29T19:06:21.846Z,60.12
2018-09-29T19:08:53.502Z,60.26
2018-09-29T19:11:28.617Z,61.00
2018-09-29T19:13:59.234Z,60.89
2018-09-29T19:16:30.045Z,60.85
2018-09-29T19:18:59.962Z,60.83
2018-09-29T19:21:30.028Z,61.08
2018-09-29T19:24:00.161Z,60.91
2018-09-29T19:26:32.328Z,61.08
2018-09-29T19:29:02.283Z,61.28
2018-09-29T19:31:33.252Z,61.10
2018-09-29T19:34:03.462Z,61.99
2018-09-29T19:36:33.263Z,61.27
2018-09-29T19:39:05.734Z,61.55
2018-09-29T19:41:35.660Z,61.16
2018-09-29T19:44:06.144Z,61.29
2018-09-29T19:46:36.334Z,61.18
2018-09-29T19:49:06.686Z,61.24
2018-09-29T19:51:36.423Z,61.63
2018-09-29T19:54:07.058Z,62.16
2018-09-29T19:56:38.706Z,61.88
2018-09-29T19:59:10.023Z,61.57
2018-09-29T20:01:40.417Z,61.93
2018-09-29T20:04:10.399Z,61.87
2018-09-29T20:06:45.701Z,61.93
2018-09-29T20:09:18.035Z,62.48
2018-09-29T20:11:48.737Z,62.40
2018-09-29T20:14:19.066Z,62.42
2018-09-29T20:16:49.318Z,62.20
2018-09-29T20:19:21.334Z,62.40
2018-09-29T20:21:51.512Z,62.29
2018-09-29T20:24:22.270Z,62.12
2018-09-29T20:26:56.000Z,62.25
2018-09-29T20:29:25.880Z,62.51
2018-09-29T20:31:56.210Z,62.77
2018-09-29T20:34:26.379Z,63.04
2018-09-29T20:36:56.315Z,63.12
2018-09-29T20:39:28.157Z,63.56
2018-09-29T20:42:00.421Z,64.04
2018-09-29T20:44:32.589Z,64.11
2018-09-29T20:47:03.631Z,63.41
2018-09-29T20:49:33.640Z,63.42
2018-09-29T20:52:05.590Z,63.71
2018-09-29T20:54:37.426Z,63.79
2018-09-29T20:57:08.246Z,64.24
2018-09-29T20:59:38.713Z,64.01
2018-09-29T21:02:08.724Z,64.13
2018-09-29T21:04:40.859Z,64.39
2018-09-29T21:07:11.870Z,64.73
2018-09-29T21:09:44.543Z,64.81
2018-09-29T21:12:14.813Z,65.10
2018-09-29T21:14:45.370Z,64.86
2018-09-29T21:17:16.848Z,65.16
2018-09-29T21:19:46.840Z,65.10
2018-09-29T21:22:20.113Z,65.24
2018-09-29T21:24:50.209Z,64.95
2018-09-29T21:27:20.649Z,64.99
2018-09-29T21:29:52.109Z,64.88
2018-09-29T21:32:26.952Z,64.87
2018-09-29T21:34:57.690Z,65.26
2018-09-29T21:37:27.585Z,65.49
2018-09-29T21:39:59.178Z,65.59
2018-09-29T21:42:30.283Z,65.40
2018-09-29T21:45:00.015Z,65.35
2018-09-29T21:47:31.457Z,65.58
2018-09-29T21:50:02.127Z,65.90
2018-09-29T21:52:33.303Z,66.26
2018-09-29T21:55:03.384Z,66.02
2018-09-29T21:57:38.151Z,65.62
2018-09-29T22:00:11.205Z,65.84
2018-09-29T22:02:43.447Z,65.80
2018-09-29T22:05:14.009Z,65.64
2018-09-29T22:07:43.715Z,65.56
2018-09-29T22:10:14.286Z,65.27
2018-09-29T22:12:44.047Z,65.44
2018-09-29T22:15:13.631Z,65.45
2018-09-29T22:17:44.142Z,66.45
2018-09-29T22:20:15.939Z,66.42
2018-09-29T22:22:46.783Z,65.81
2018-09-29T22:25:19.303Z,65.99
2018-09-29T22:27:49.850Z,66.22
2018-09-29T22:30:21.642Z,66.16
2018-09-29T22:32:52.142Z,66.00
2018-09-29T22:35:25.346Z,66.14
2018-09-29T22:37:56.720Z,66.36
2018-09-29T22:40:26.278Z,66.71
2018-09-29T22:42:55.821Z,66.67
2018-09-29T22:45:31.589Z,66.62
2018-09-29T22:48:01.530Z,66.61
2018-09-29T22:50:32.182Z,67.08
2018-09-29T22:53:02.336Z,66.82
2018-09-29T22:55:32.800Z,67.15
2018-09-29T22:58:03.923Z,67.53
2018-09-29T23:00:33.730Z,67.36
2018-09-29T23:03:04.945Z,67.24
2018-09-29T23:05:35.657Z,67.49
2018-09-29T23:08:07.006Z,67.51
2018-09-29T23:10:37.761Z,67.87
2018-09-29T23:13:09.777Z,67.69
2018-09-29T23:15:42.647Z,68.15
2018-09-29T23:18:14.131Z,68.67
2018-09-29T23:20:44.406Z,68.63
2018-09-29T23:23:15.432Z,68.56
2018-09-29T23:25:45.632Z,68.65
2018-09-29T23:28:16.706Z,68.39
2018-09-29T23:30:47.076Z,68.59
2018-09-29T23:33:18.824Z,68.88
2018-09-29T23:35:48.520Z,69.08
2018-09-29T23:38:19.316Z,69.01
2018-09-29T23:40:49.618Z,69.41
2018-09-29T23:43:19.600Z,69.76
2018-09-29T23:45:50.306Z,69.22
2018-09-29T23:48:20.221Z,69.15
2018-09-29T23:50:49.704Z,68.83
2018-09-29T23:53:20.329Z,69.33
2018-09-29T23:55:52.423Z,69.92
2018-09-29T23:58:23.551Z,70.03
